Time;durP1;ratioP1;P1;durP2;ratioP2;P2;SDS_P1;SDS_P2;PMS_P1;PMS_P2;Temp;Humidity;BMP_temperature;BMP_pressure;BME280_temperature;BME280_humidity;BME280_pressure;Samples;Min_cycle;Max_cycle;Signal;HPM_P1;HPM_P2
2023/02/18 00:00:29;;;;;;;2.70;1.10;;;;;;;11.70;69.78;97515.16;5040432;28;20140;-84
2023/02/18 00:02:57;;;;;;;1.08;0.90;;;;;;;11.71;69.58;97513.34;5039912;28;20045;-81
2023/02/18 00:05:24;;;;;;;1.30;0.80;;;;;;;11.72;69.40;97517.63;5039870;28;20088;-86
2023/02/18 00:07:53;;;;;;;1.48;0.90;;;;;;;11.72;69.55;97522.84;5039607;28;20050;-84
2023/02/18 00:10:21;;;;;;;1.25;1.00;;;;;;;11.72;69.51;97518.44;5039581;28;20049;-85
2023/02/18 00:12:49;;;;;;;0.88;0.80;;;;;;;11.73;69.27;97521.84;5039639;28;20069;-83
2023/02/18 00:15:16;;;;;;;1.23;1.13;;;;;;;11.72;69.47;97507.16;5038748;28;20045;-82
2023/02/18 00:17:44;;;;;;;1.00;0.90;;;;;;;11.72;69.36;97502.75;5039134;28;20522;-84
2023/02/18 00:20:12;;;;;;;1.05;0.88;;;;;;;11.72;69.31;97512.38;5038359;28;20109;-85
2023/02/18 00:22:40;;;;;;;1.05;1.02;;;;;;;11.73;69.22;97509.59;5039015;28;20072;-81
2023/02/18 00:25:09;;;;;;;1.02;0.90;;;;;;;11.73;69.27;97503.56;5038608;28;20060;-80
2023/02/18 00:27:37;;;;;;;1.48;1.10;;;;;;;11.73;69.27;97500.94;5038911;28;20069;-83
2023/02/18 00:30:06;;;;;;;1.30;1.02;;;;;;;11.77;69.25;97520.53;5038613;28;20056;-89
2023/02/18 00:32:34;;;;;;;1.80;0.70;;;;;;;11.78;68.92;97500.44;5042343;28;20053;-86
2023/02/18 00:35:02;;;;;;;0.82;0.82;;;;;;;11.77;68.95;97507.47;5045604;28;20049;-88
2023/02/18 00:37:30;;;;;;;0.70;0.70;;;;;;;11.77;69.06;97494.41;5045792;28;20060;-85
2023/02/18 00:40:00;;;;;;;1.52;0.70;;;;;;;11.77;68.87;97496.22;5046818;28;20045;-84
2023/02/18 00:42:29;;;;;;;0.82;0.82;;;;;;;11.74;68.96;97498.16;5047343;28;20045;-84
2023/02/18 00:44:56;;;;;;;0.90;0.90;;;;;;;11.74;69.05;97497.31;5045375;28;20052;-83
2023/02/18 00:47:24;;;;;;;1.90;0.60;;;;;;;11.74;68.92;97497.31;5045378;28;20471;-85
2023/02/18 00:49:52;;;;;;;1.00;1.00;;;;;;;11.74;68.77;97494.72;5044914;28;20088;-84
2023/02/18 00:52:19;;;;;;;0.93;0.70;;;;;;;11.75;68.70;97491.13;5044728;28;20136;-83
2023/02/18 00:54:47;;;;;;;1.90;1.00;;;;;;;11.77;68.52;97510.09;5082232;22;20048;-75
2023/02/18 00:57:14;;;;;;;0.80;0.80;;;;;;;11.78;68.30;97505.66;5075071;28;20052;-75
2023/02/18 00:59:43;;;;;;;1.08;0.70;;;;;;;11.78;68.38;97488.19;5074057;28;20048;-75
2023/02/18 01:02:11;;;;;;;0.68;0.68;;;;;;;11.78;68.40;97495.22;5075022;28;20491;-75
2023/02/18 01:04:38;;;;;;;1.23;0.70;;;;;;;11.77;68.20;97497.00;5085830;28;20048;-76
2023/02/18 01:07:06;;;;;;;0.73;0.73;;;;;;;11.77;68.11;97491.78;5095025;28;20055;-75
2023/02/18 01:09:34;;;;;;;1.48;1.02;;;;;;;11.76;67.92;97492.75;5094258;28;20131;-76
2023/02/18 01:12:02;;;;;;;0.77;0.77;;;;;;;11.76;68.13;97492.75;5095182;28;20054;-76
2023/02/18 01:14:29;;;;;;;1.20;0.70;;;;;;;11.74;68.08;97499.94;5094693;28;20796;-75
2023/02/18 01:16:58;;;;;;;0.60;0.60;;;;;;;11.73;68.16;97493.91;5095217;28;20425;-75
2023/02/18 01:19:26;;;;;;;0.47;0.40;;;;;;;11.72;68.14;97494.91;5094089;28;20505;-75
2023/02/18 01:21:53;;;;;;;0.65;0.60;;;;;;;11.72;67.91;97504.56;5094888;28;20139;-75
2023/02/18 01:24:21;;;;;;;0.60;0.60;;;;;;;11.73;67.96;97493.09;5094657;28;20413;-75
2023/02/18 01:26:48;;;;;;;0.65;0.57;;;;;;;11.74;68.03;97497.31;5094464;28;20044;-75
2023/02/18 01:29:16;;;;;;;0.90;0.80;;;;;;;11.74;67.85;97494.72;5094014;28;20044;-75
2023/02/18 01:31:43;;;;;;;0.60;0.60;;;;;;;11.73;68.04;97483.44;5094694;28;20430;-75
2023/02/18 01:34:14;;;;;;;0.70;0.70;;;;;;;11.74;67.85;97494.72;5094690;28;20083;-75
2023/02/18 01:36:41;;;;;;;0.57;0.55;;;;;;;11.71;67.97;97493.25;5094991;28;20036;-75
2023/02/18 01:39:09;;;;;;;0.77;0.77;;;;;;;11.69;67.99;97487.38;5093587;28;20565;-75
2023/02/18 01:41:36;;;;;;;1.92;0.80;;;;;;;11.69;68.27;97492.59;5094287;28;20087;-75
2023/02/18 01:44:15;;;;;;;0.60;0.60;;;;;;;11.72;68.18;97491.47;5094350;28;20054;-75
2023/02/18 01:46:43;;;;;;;1.00;0.80;;;;;;;11.70;68.19;97485.59;5094329;28;20044;-75
2023/02/18 01:49:15;;;;;;;0.68;0.65;;;;;;;11.69;68.29;97481.34;5093541;28;20505;-75
2023/02/18 01:51:46;;;;;;;0.80;0.80;;;;;;;11.67;68.22;97483.31;5105229;28;20098;-75
2023/02/18 01:54:18;;;;;;;1.00;0.90;;;;;;;11.66;68.49;97482.50;5112646;28;20047;-76
2023/02/18 01:56:49;;;;;;;1.75;0.73;;;;;;;11.64;68.66;97481.84;5112850;28;20067;-75
2023/02/18 01:59:20;;;;;;;0.93;0.93;;;;;;;11.65;68.51;97480.03;5112233;28;20150;-75
2023/02/18 02:01:48;;;;;;;1.55;1.08;;;;;;;11.66;68.39;97476.47;5110120;28;20149;-75
2023/02/18 02:04:17;;;;;;;1.42;0.93;;;;;;;11.67;68.27;97486.72;5094606;28;20462;-75
2023/02/18 02:06:45;;;;;;;1.10;1.05;;;;;;;11.65;68.41;97490.50;5094075;28;20044;-75
2023/02/18 02:09:17;;;;;;;1.08;1.05;;;;;;;11.62;68.35;97475.97;5093132;28;20148;-75
2023/02/18 02:12:12;;;;;;;0.93;0.93;;;;;;;11.64;68.76;97475.81;5094269;28;20048;-75
2023/02/18 02:14:55;;;;;;;2.00;1.15;;;;;;;11.64;68.78;97481.03;5093639;28;20048;-75
2023/02/18 02:17:33;;;;;;;1.23;0.90;;;;;;;11.66;68.73;97469.44;5101348;28;20050;-75
2023/02/18 02:20:33;;;;;;;1.23;1.05;;;;;;;11.68;68.99;97469.28;5105745;28;20059;-75
2023/02/18 02:23:28;;;;;;;0.93;0.90;;;;;;;11.69;68.90;97466.47;5095572;28;20055;-75
2023/02/18 02:26:33;;;;;;;1.20;1.00;;;;;;;11.68;68.79;97458.81;5094108;28;20318;-75
2023/02/18 02:29:35;;;;;;;0.98;0.90;;;;;;;11.69;68.74;97463.84;5093155;28;20067;-75
2023/02/18 02:32:35;;;;;;;2.38;1.45;;;;;;;11.69;68.62;97460.44;5060194;28;20400;-75
2023/02/18 02:35:07;;;;;;;1.30;1.20;;;;;;;11.68;68.31;97454.41;5093602;28;20486;-75
2023/02/18 02:37:41;;;;;;;1.30;1.10;;;;;;;11.68;68.37;97445.75;5093435;28;20416;-75
2023/02/18 02:40:19;;;;;;;2.15;1.08;;;;;;;11.70;68.61;97443.78;5093456;28;20075;-76
2023/02/18 02:42:58;;;;;;;1.80;1.40;;;;;;;11.70;68.25;97446.41;5093390;28;20498;-75
2023/02/18 02:45:37;;;;;;;1.33;1.23;;;;;;;11.67;68.15;97457.97;5093219;28;20063;-75
2023/02/18 02:48:15;;;;;;;1.20;1.10;;;;;;;11.66;68.22;97445.09;5092404;28;20056;-75
2023/02/18 02:50:51;;;;;;;0.88;0.88;;;;;;;11.66;68.20;97451.13;5093036;28;20048;-75
2023/02/18 02:53:23;;;;;;;1.90;1.42;;;;;;;11.67;68.32;97436.25;5093191;28;20051;-75
2023/02/18 02:55:50;;;;;;;1.27;1.17;;;;;;;11.67;67.98;97431.03;5092826;28;20082;-75
2023/02/18 02:58:19;;;;;;;0.93;0.90;;;;;;;11.69;68.12;97439.53;5092299;28;20284;-75
2023/02/18 03:00:59;;;;;;;1.13;1.02;;;;;;;11.70;67.57;97421.06;5093416;28;20505;-76
2023/02/18 03:03:43;;;;;;;0.90;0.90;;;;;;;11.71;67.64;97416.66;5092943;28;20075;-75
2023/02/18 03:06:27;;;;;;;0.93;0.90;;;;;;;11.71;67.37;97412.22;5092970;28;20075;-75
2023/02/18 03:09:06;;;;;;;1.08;0.98;;;;;;;11.73;67.51;97412.06;5092009;28;20058;-75
2023/02/18 03:11:43;;;;;;;1.08;0.85;;;;;;;11.72;67.34;97418.31;5092922;28;20052;-75
2023/02/18 03:14:18;;;;;;;1.08;0.98;;;;;;;11.69;67.23;97421.22;5091639;28;20059;-76
2023/02/18 03:16:50;;;;;;;1.55;1.20;;;;;;;11.67;67.37;97415.34;5090676;28;20497;-76
2023/02/18 03:19:23;;;;;;;0.90;0.90;;;;;;;11.67;67.21;97410.13;5090153;28;20079;-75
2023/02/18 03:21:58;;;;;;;1.35;1.25;;;;;;;11.68;67.18;97411.78;5090630;28;20528;-75
2023/02/18 03:24:28;;;;;;;1.20;1.10;;;;;;;11.67;67.23;97407.50;5090644;28;20425;-75
2023/02/18 03:27:04;;;;;;;1.15;1.00;;;;;;;11.67;67.27;97407.50;5090913;28;20131;-76
2023/02/18 03:29:33;;;;;;;1.40;1.30;;;;;;;11.68;67.12;97406.53;5090951;28;20059;-76
2023/02/18 03:32:05;;;;;;;1.40;1.30;;;;;;;11.68;67.07;97409.97;5087572;28;20164;-76
2023/02/18 03:34:36;;;;;;;1.30;1.20;;;;;;;11.68;67.01;97401.31;5092080;28;20063;-76
2023/02/18 03:37:07;;;;;;;1.45;0.98;;;;;;;11.69;67.12;97397.72;5091268;28;20675;-75
2023/02/18 03:39:37;;;;;;;1.30;1.20;;;;;;;11.69;66.90;97414.19;5090761;28;20047;-75
2023/02/18 03:42:06;;;;;;;0.85;0.82;;;;;;;11.69;66.60;97408.16;5091364;28;20070;-76
2023/02/18 03:44:33;;;;;;;1.55;1.27;;;;;;;11.69;66.93;97408.16;5091359;28;20051;-75
2023/02/18 03:47:01;;;;;;;2.90;1.27;;;;;;;11.67;66.73;97420.59;5091655;28;20044;-76
2023/02/18 03:49:29;;;;;;;0.90;0.90;;;;;;;11.66;66.74;97418.97;5091101;28;20051;-76
2023/02/18 03:51:56;;;;;;;0.93;0.88;;;;;;;11.65;66.80;97399.84;5092136;28;20425;-76
2023/02/18 03:54:25;;;;;;;1.10;0.95;;;;;;;11.65;66.66;97412.09;5092146;28;20155;-76
2023/02/18 03:56:52;;;;;;;1.00;1.00;;;;;;;11.65;66.85;97417.31;5091874;28;20486;-76
2023/02/18 03:59:20;;;;;;;1.10;0.93;;;;;;;11.64;66.72;97411.28;5091590;28;20047;-76
2023/02/18 04:01:48;;;;;;;1.42;0.90;;;;;;;11.64;66.73;97407.88;5091825;28;20498;-76
2023/02/18 04:04:15;;;;;;;3.03;1.30;;;;;;;11.64;66.66;97410.47;5091949;28;20512;-76
2023/02/18 04:06:43;;;;;;;1.25;1.00;;;;;;;11.65;66.66;97414.72;5092083;28;20493;-75
2023/02/18 04:09:10;;;;;;;1.25;1.13;;;;;;;11.65;66.71;97407.69;5093485;28;20050;-75
2023/02/18 04:11:40;;;;;;;1.80;1.08;;;;;;;11.65;66.55;97412.91;5094716;28;20058;-75
2023/02/18 04:14:08;;;;;;;1.25;0.80;;;;;;;11.66;66.41;97413.75;5095584;28;20048;-76
2023/02/18 04:16:36;;;;;;;0.98;0.80;;;;;;;11.65;66.51;97402.44;5095511;28;20547;-75
2023/02/18 04:19:03;;;;;;;0.82;0.82;;;;;;;11.66;66.28;97405.91;5094907;28;20139;-76
2023/02/18 04:21:31;;;;;;;0.80;0.75;;;;;;;11.65;66.34;97410.28;5095544;28;20052;-75
2023/02/18 04:23:59;;;;;;;0.70;0.70;;;;;;;11.63;66.35;97414.91;5095626;28;20509;-76
2023/02/18 04:26:27;;;;;;;1.30;0.90;;;;;;;11.63;66.46;97403.59;5095961;28;20460;-76
2023/02/18 04:28:56;;;;;;;0.80;0.73;;;;;;;11.64;66.51;97405.25;5095334;28;20082;-76
2023/02/18 04:31:23;;;;;;;1.27;0.80;;;;;;;11.66;66.27;97408.50;5095900;28;20127;-76
2023/02/18 04:33:51;;;;;;;0.65;0.60;;;;;;;11.66;66.27;97393.63;5095574;28;20052;-76
2023/02/18 04:36:18;;;;;;;1.92;0.85;;;;;;;11.67;66.08;97389.22;5095661;28;20048;-75
2023/02/18 04:38:46;;;;;;;0.80;0.80;;;;;;;11.67;66.19;97384.81;5094882;28;20485;-75
2023/02/18 04:41:14;;;;;;;1.20;0.73;;;;;;;11.69;66.19;97389.88;5095641;28;20138;-75
2023/02/18 04:43:41;;;;;;;0.70;0.70;;;;;;;11.70;66.17;97396.75;5095498;28;20502;-76
2023/02/18 04:46:10;;;;;;;1.10;1.00;;;;;;;11.71;66.10;97385.28;5095575;28;20048;-76
2023/02/18 04:48:38;;;;;;;0.80;0.80;;;;;;;11.72;65.82;97392.16;5094715;28;20048;-75
2023/02/18 04:51:06;;;;;;;1.20;1.10;;;;;;;11.72;65.88;97387.75;5095262;28;20051;-75
2023/02/18 04:53:34;;;;;;;0.68;0.68;;;;;;;11.72;65.72;97361.59;5095390;28;20048;-76
2023/02/18 04:56:01;;;;;;;0.70;0.70;;;;;;;11.72;65.54;97384.31;5095469;28;20084;-76
2023/02/18 04:58:29;;;;;;;0.80;0.80;;;;;;;11.71;65.65;97380.88;5095069;28;20055;-76
2023/02/18 05:00:59;;;;;;;0.70;0.70;;;;;;;11.71;65.47;97380.88;5095207;28;20456;-76
2023/02/18 05:03:28;;;;;;;1.00;1.00;;;;;;;11.71;65.52;97395.75;5095180;28;20051;-76
2023/02/18 05:05:56;;;;;;;0.80;0.80;;;;;;;11.71;65.35;97396.56;5098120;28;20052;-75
2023/02/18 05:08:24;;;;;;;1.20;1.10;;;;;;;11.72;65.37;97397.38;5108321;28;20055;-75
2023/02/18 05:10:51;;;;;;;0.98;0.70;;;;;;;11.71;65.36;97406.19;5105251;28;20047;-75
2023/02/18 05:13:21;;;;;;;0.73;0.73;;;;;;;11.70;65.30;97399.34;5095891;28;20052;-75
2023/02/18 05:15:49;;;;;;;0.90;0.90;;;;;;;11.70;65.27;97399.34;5095481;28;20066;-75
2023/02/18 05:18:16;;;;;;;0.60;0.60;;;;;;;11.69;65.21;97403.75;5094283;28;20433;-75
2023/02/18 05:20:45;;;;;;;0.55;0.55;;;;;;;11.67;65.21;97408.31;5095244;28;20075;-75
2023/02/18 05:23:13;;;;;;;2.35;1.20;;;;;;;11.66;65.12;97398.88;5095613;28;20439;-76
2023/02/18 05:25:41;;;;;;;1.10;1.00;;;;;;;11.67;64.99;97403.09;5095592;28;20118;-76
2023/02/18 05:28:08;;;;;;;0.80;0.80;;;;;;;11.66;64.86;97401.47;5094847;28;20048;-75
2023/02/18 05:30:36;;;;;;;1.27;1.17;;;;;;;11.67;64.90;97392.63;5094879;28;20051;-76
2023/02/18 05:33:04;;;;;;;0.93;0.93;;;;;;;11.68;64.63;97396.91;5095136;28;20048;-75
2023/02/18 05:35:31;;;;;;;1.52;0.65;;;;;;;11.69;64.87;97393.28;5095178;28;20135;-75
2023/02/18 05:38:00;;;;;;;0.93;0.90;;;;;;;11.71;64.48;97396.56;5093890;28;20044;-75
2023/02/18 05:40:28;;;;;;;1.70;1.00;;;;;;;11.73;64.48;97405.03;5094669;28;20048;-75
2023/02/18 05:42:55;;;;;;;1.10;1.00;;;;;;;11.73;64.08;97404.22;5094454;28;20052;-75
2023/02/18 05:45:23;;;;;;;1.50;1.10;;;;;;;11.72;63.89;97403.44;5094384;28;20052;-75
2023/02/18 05:47:50;;;;;;;1.23;1.13;;;;;;;11.73;63.99;97399.00;5093702;28;20044;-75
2023/02/18 05:50:18;;;;;;;2.45;1.30;;;;;;;11.72;63.95;97394.78;5094645;28;20052;-75
2023/02/18 05:52:46;;;;;;;1.02;0.88;;;;;;;11.72;63.93;97397.38;5094286;28;20421;-76
2023/02/18 05:55:14;;;;;;;0.80;0.80;;;;;;;11.71;63.81;97401.78;5098735;28;20058;-76
2023/02/18 05:57:42;;;;;;;1.63;1.23;;;;;;;11.70;63.87;97384.47;5103573;28;20107;-75
2023/02/18 06:00:10;;;;;;;1.35;1.25;;;;;;;11.72;63.89;97392.16;5095229;28;20547;-76
2023/02/18 06:02:38;;;;;;;1.33;1.20;;;;;;;11.71;63.82;97385.28;5095133;28;20047;-76
2023/02/18 06:05:07;;;;;;;2.10;1.10;;;;;;;11.71;63.87;97382.69;5094231;28;20055;-75
2023/02/18 06:07:34;;;;;;;1.08;0.98;;;;;;;11.71;63.79;97386.09;5094003;28;20048;-76
2023/02/18 06:10:02;;;;;;;1.27;1.10;;;;;;;11.72;63.61;97394.78;5093361;28;20135;-76
2023/02/18 06:12:31;;;;;;;1.20;1.10;;;;;;;11.73;63.63;97385.94;5093879;28;20044;-75
2023/02/18 06:14:58;;;;;;;1.02;1.00;;;;;;;11.71;63.77;97391.31;5094065;28;20134;-76
2023/02/18 06:17:26;;;;;;;1.20;1.10;;;;;;;11.71;63.72;97393.13;5093755;28;20047;-75
2023/02/18 06:19:53;;;;;;;1.67;1.20;;;;;;;11.70;63.58;97394.13;5093054;28;20048;-76
2023/02/18 06:22:21;;;;;;;0.77;0.77;;;;;;;11.69;63.87;97403.75;5093863;28;20079;-76
2023/02/18 06:24:49;;;;;;;0.70;0.70;;;;;;;11.68;63.73;97407.34;5093559;28;20054;-75
2023/02/18 06:27:16;;;;;;;0.88;0.88;;;;;;;11.70;63.87;97405.38;5094033;28;20055;-75
2023/02/18 06:29:45;;;;;;;0.88;0.80;;;;;;;11.70;64.10;97412.41;5093199;28;20410;-76
2023/02/18 06:32:13;;;;;;;0.80;0.80;;;;;;;11.72;64.03;97410.47;5093055;28;20409;-75
2023/02/18 06:34:41;;;;;;;1.02;0.80;;;;;;;11.71;63.95;97412.22;5093452;28;20083;-76
2023/02/18 06:37:08;;;;;;;1.40;1.00;;;;;;;11.69;64.09;97410.78;5093261;28;20056;-75
2023/02/18 06:39:36;;;;;;;0.73;0.73;;;;;;;11.69;64.20;97408.16;5092524;28;20044;-75
2023/02/18 06:42:04;;;;;;;0.70;0.70;;;;;;;11.69;64.36;97402.94;5093294;28;20050;-76
2023/02/18 06:44:31;;;;;;;0.88;0.88;;;;;;;11.70;64.39;97407.19;5093378;28;20047;-75
2023/02/18 06:47:00;;;;;;;0.85;0.85;;;;;;;11.70;64.39;97410.63;5093206;28;20142;-76
2023/02/18 06:49:29;;;;;;;0.57;0.57;;;;;;;11.71;64.75;97409.63;5092240;28;20047;-75
2023/02/18 06:51:56;;;;;;;0.93;0.70;;;;;;;11.70;64.67;97407.19;5093104;28;20075;-76
2023/02/18 06:54:24;;;;;;;1.15;0.80;;;;;;;11.71;64.76;97411.44;5098113;22;20048;-82
2023/02/18 06:56:52;;;;;;;1.17;0.90;;;;;;;11.70;64.69;97415.03;5060688;28;20059;-80
2023/02/18 06:59:20;;;;;;;0.57;0.57;;;;;;;11.70;64.75;97401.97;5059925;28;20045;-80
2023/02/18 07:01:47;;;;;;;0.65;0.65;;;;;;;11.70;64.96;97400.16;5059792;28;20049;-82
2023/02/18 07:04:16;;;;;;;1.77;1.02;;;;;;;11.71;64.87;97395.75;5058426;28;20080;-86
2023/02/18 07:06:44;;;;;;;1.05;0.90;;;;;;;11.71;65.18;97390.50;5058720;28;20041;-80
2023/02/18 07:09:11;;;;;;;0.80;0.80;;;;;;;11.71;65.02;97390.50;5058162;28;20045;-84
2023/02/18 07:11:39;;;;;;;0.70;0.68;;;;;;;11.69;65.08;97382.84;5062217;28;20080;-87
2023/02/18 07:14:07;;;;;;;0.90;0.90;;;;;;;11.70;65.18;97388.91;5059568;28;20056;-85
2023/02/18 07:16:34;;;;;;;2.15;1.17;;;;;;;11.71;65.11;97395.75;5057494;28;20056;-80
2023/02/18 07:19:02;;;;;;;1.27;0.75;;;;;;;11.71;64.84;97390.50;5056843;28;20080;-80
2023/02/18 07:21:31;;;;;;;0.80;0.80;;;;;;;11.71;65.04;97375.63;5060305;28;20137;-88
2023/02/18 07:23:59;;;;;;;1.02;0.85;;;;;;;11.71;64.99;97370.41;5065405;28;20113;-86
2023/02/18 07:26:26;;;;;;;1.10;1.00;;;;;;;11.73;64.91;97367.63;5065606;28;20076;-87
2023/02/18 07:28:54;;;;;;;1.30;0.93;;;;;;;11.74;65.16;97382.31;5064947;28;20045;-84
2023/02/18 07:31:21;;;;;;;0.85;0.82;;;;;;;11.72;65.01;97372.06;5065801;28;20128;-82
2023/02/18 07:33:49;;;;;;;1.50;0.68;;;;;;;11.69;65.64;97371.56;5065819;28;20049;-82
2023/02/18 07:36:17;;;;;;;1.15;1.05;;;;;;;11.68;65.29;97373.38;5069673;28;20045;-83
2023/02/18 07:38:45;;;;;;;0.98;0.82;;;;;;;11.68;65.35;97365.53;5066959;28;20055;-83
2023/02/18 07:41:20;;;;;;;0.70;0.70;;;;;;;11.69;65.36;97355.91;5067730;28;20116;-81
2023/02/18 07:43:48;;;;;;;1.05;0.98;;;;;;;11.70;65.32;97357.53;5064799;28;20056;-81
2023/02/18 07:46:16;;;;;;;0.68;0.68;;;;;;;11.71;65.27;97367.81;5066314;28;20068;-80
2023/02/18 07:48:44;;;;;;;1.00;0.93;;;;;;;11.71;64.84;97354.72;5064716;28;20045;-79
2023/02/18 07:51:12;;;;;;;2.10;1.00;;;;;;;11.74;64.97;97364.03;5065676;28;20048;-78
2023/02/18 07:53:40;;;;;;;1.00;0.90;;;;;;;11.74;64.76;97361.41;5064799;28;20093;-81
2023/02/18 07:56:09;;;;;;;2.42;0.95;;;;;;;11.75;64.91;97357.84;5065187;28;20049;-79
2023/02/18 07:58:38;;;;;;;1.00;0.90;;;;;;;11.76;64.97;97346.38;5064497;28;20049;-79
2023/02/18 08:01:08;;;;;;;1.55;1.10;;;;;;;11.77;64.89;97349.84;5063064;28;20053;-79
2023/02/18 08:03:35;;;;;;;1.38;1.27;;;;;;;11.75;64.92;97350.78;5061994;28;20045;-83
2023/02/18 08:06:05;;;;;;;1.73;0.90;;;;;;;11.75;64.94;97337.72;5061875;28;20055;-78
2023/02/18 08:08:34;;;;;;;1.00;0.90;;;;;;;11.77;64.91;97348.03;5061595;28;20064;-82
2023/02/18 08:11:06;;;;;;;1.40;1.30;;;;;;;11.79;64.86;97346.06;5060817;28;20061;-79
2023/02/18 08:13:46;;;;;;;2.70;1.50;;;;;;;11.79;64.58;97346.06;5059222;28;20499;-81
2023/02/18 08:16:14;;;;;;;1.95;1.20;;;;;;;11.81;64.73;97344.09;5059867;28;20151;-79
2023/02/18 08:18:42;;;;;;;1.73;1.40;;;;;;;11.83;64.64;97347.34;5060917;28;20123;-83
2023/02/18 08:21:10;;;;;;;2.25;1.50;;;;;;;11.86;64.47;97339.16;5068303;28;20041;-83
2023/02/18 08:23:38;;;;;;;1.92;1.40;;;;;;;11.86;64.60;97331.31;5065332;28;20084;-81
2023/02/18 08:26:06;;;;;;;1.30;1.20;;;;;;;11.89;64.48;97335.41;5060399;28;20063;-80
2023/02/18 08:28:34;;;;;;;1.10;0.98;;;;;;;11.89;64.56;97335.41;5059330;28;20049;-80
2023/02/18 08:31:03;;;;;;;1.27;1.15;;;;;;;11.89;64.87;97340.63;5060279;28;20112;-80
2023/02/18 08:33:31;;;;;;;1.95;1.60;;;;;;;11.90;64.64;97340.47;5060905;28;20068;-81
2023/02/18 08:36:01;;;;;;;2.00;1.67;;;;;;;11.91;64.80;97323.78;5059276;28;20109;-79
2023/02/18 08:38:28;;;;;;;2.10;1.35;;;;;;;11.94;64.83;97325.25;5060558;28;20081;-79
2023/02/18 08:41:02;;;;;;;4.25;3.30;;;;;;;11.96;64.76;97325.91;5060350;28;20059;-79
2023/02/18 08:43:29;;;;;;;5.43;3.42;;;;;;;11.99;64.60;97309.88;5060544;28;20049;-85
2023/02/18 08:45:58;;;;;;;3.10;2.25;;;;;;;12.02;64.34;97319.97;5060887;28;20132;-82
2023/02/18 08:48:29;;;;;;;1.67;1.38;;;;;;;12.04;64.06;97338.91;5058592;28;20056;-82
2023/02/18 08:50:56;;;;;;;1.40;1.30;;;;;;;12.07;63.79;97311.59;5058248;28;20044;-82
2023/02/18 08:53:24;;;;;;;1.50;1.40;;;;;;;12.08;63.83;97318.47;5058783;28;20048;-80
2023/02/18 08:55:52;;;;;;;21.17;13.68;;;;;;;12.11;64.03;97321.56;5061679;28;20072;-80
2023/02/18 08:58:19;;;;;;;8.43;5.60;;;;;;;12.11;63.80;97303.25;5061846;28;20080;-80
2023/02/18 09:00:47;;;;;;;4.82;2.55;;;;;;;12.14;63.93;97308.13;5061807;28;20047;-82
2023/02/18 09:03:15;;;;;;;3.22;1.58;;;;;;;12.16;63.35;97308.78;5062116;28;20059;-81
2023/02/18 09:05:44;;;;;;;1.27;1.17;;;;;;;12.21;62.97;97318.72;5062184;28;20503;-79
2023/02/18 09:08:12;;;;;;;2.08;1.50;;;;;;;12.24;63.09;97318.34;5060156;28;20051;-79
2023/02/18 09:10:39;;;;;;;1.42;1.33;;;;;;;12.30;63.34;97314.22;5061319;28;20045;-79
2023/02/18 09:13:07;;;;;;;1.40;1.30;;;;;;;12.35;63.03;97315.34;5059066;28;20131;-79
2023/02/18 09:15:34;;;;;;;1.02;0.90;;;;;;;12.41;62.62;97323.47;5060368;28;20083;-80
2023/02/18 09:18:02;;;;;;;2.28;1.10;;;;;;;12.46;62.65;97323.75;5058904;28;20507;-83
2023/02/18 09:20:29;;;;;;;1.10;1.00;;;;;;;12.48;62.69;97308.69;5063227;28;20590;-82
2023/02/18 09:22:59;;;;;;;7.90;2.35;;;;;;;12.52;62.73;97295.06;5064139;28;20108;-80
2023/02/18 09:25:27;;;;;;;16.60;10.02;;;;;;;12.58;62.55;97301.41;5059642;28;20041;-79
2023/02/18 09:27:54;;;;;;;1.20;1.10;;;;;;;12.62;62.10;97301.88;5058822;28;20498;-79
2023/02/18 09:30:22;;;;;;;1.25;1.13;;;;;;;12.65;61.84;97315.41;5059958;28;20053;-81
2023/02/18 09:32:50;;;;;;;1.38;1.00;;;;;;;12.65;61.77;97309.38;5060326;28;20048;-79
2023/02/18 09:35:17;;;;;;;1.35;1.25;;;;;;;12.66;61.87;97306.59;5059362;28;20045;-79
2023/02/18 09:37:45;;;;;;;1.60;1.10;;;;;;;12.67;61.48;97297.72;5059033;28;20064;-80
2023/02/18 09:40:25;;;;;;;1.98;1.00;;;;;;;12.68;61.61;97294.13;5057640;28;20064;-82
2023/02/18 09:42:56;;;;;;;3.70;2.33;;;;;;;12.69;61.81;97295.75;5058069;28;20411;-80
2023/02/18 09:45:24;;;;;;;21.52;13.15;;;;;;;12.74;61.84;97293.41;5057808;28;20053;-80
2023/02/18 09:47:53;;;;;;;6.88;3.45;;;;;;;12.78;61.75;97294.66;5059006;28;20051;-80
2023/02/18 09:50:24;;;;;;;5.30;2.85;;;;;;;12.82;61.35;97289.09;5057737;28;20124;-80
2023/02/18 09:52:53;;;;;;;2.08;1.42;;;;;;;12.82;61.30;97284.66;5058701;28;20080;-79
2023/02/18 09:55:24;;;;;;;1.25;1.15;;;;;;;12.86;61.20;97272.84;5057875;28;20502;-77
2023/02/18 09:57:55;;;;;;;2.60;1.60;;;;;;;12.89;61.19;97269.06;5055565;28;20053;-81
2023/02/18 10:00:28;;;;;;;1.05;0.90;;;;;;;12.91;60.86;97267.88;5058985;28;20124;-80
2023/02/18 10:02:58;;;;;;;1.52;1.25;;;;;;;12.93;60.81;97260.66;5058657;28;20132;-78
2023/02/18 10:05:29;;;;;;;2.78;1.08;;;;;;;12.95;60.60;97271.75;5058119;28;20056;-80
2023/02/18 10:08:01;;;;;;;2.08;1.17;;;;;;;12.95;60.35;97273.56;5058721;28;20139;-78
2023/02/18 10:10:37;;;;;;;1.65;1.08;;;;;;;12.95;60.24;97270.97;5061407;28;20053;-77
2023/02/18 10:13:11;;;;;;;0.73;0.73;;;;;;;12.96;60.66;97273.38;5060704;28;20538;-77
2023/02/18 10:15:40;;;;;;;1.00;0.90;;;;;;;13.01;60.59;97266.78;5061721;28;20069;-78
2023/02/18 10:18:21;;;;;;;1.00;0.90;;;;;;;13.05;60.25;97274.09;5059231;28;20139;-83
2023/02/18 10:20:51;;;;;;;1.85;0.80;;;;;;;13.08;59.77;97280.81;5059066;28;20082;-80
2023/02/18 10:23:20;;;;;;;1.08;0.77;;;;;;;13.09;59.49;97279.81;5058128;28;20049;-79
2023/02/18 10:25:50;;;;;;;1.30;1.20;;;;;;;13.07;59.47;97287.03;5059665;28;20057;-79
2023/02/18 10:28:21;;;;;;;1.13;0.90;;;;;;;13.05;59.47;97284.56;5059914;28;20530;-78
2023/02/18 10:30:57;;;;;;;1.85;1.25;;;;;;;13.08;60.07;97281.63;5056043;28;20045;-77
2023/02/18 10:33:34;;;;;;;2.53;1.92;;;;;;;13.20;59.53;97293.25;5059101;28;20055;-78
2023/02/18 10:36:15;;;;;;;1.15;0.70;;;;;;;13.30;59.15;97279.13;5063234;28;20052;-78
2023/02/18 10:39:00;;;;;;;0.75;0.70;;;;;;;13.36;58.68;97276.56;5060290;28;20055;-78
2023/02/18 10:41:37;;;;;;;2.05;0.63;;;;;;;13.43;58.76;97275.84;5059397;28;20048;-77
2023/02/18 10:44:15;;;;;;;0.65;0.52;;;;;;;13.50;58.30;97263.63;5059106;28;20052;-77
2023/02/18 10:46:48;;;;;;;1.02;0.90;;;;;;;13.63;58.30;97273.47;5059340;28;20053;-80
2023/02/18 10:49:34;;;;;;;1.73;0.70;;;;;;;13.73;58.17;97260.84;5058675;28;20586;-78
2023/02/18 10:52:05;;;;;;;6.00;4.25;;;;;;;13.82;58.38;97275.50;5059016;28;20108;-77
2023/02/18 10:54:50;;;;;;;2.75;1.75;;;;;;;13.94;57.93;97267.94;5057202;28;20135;-76
2023/02/18 10:57:20;;;;;;;2.20;0.82;;;;;;;13.96;57.73;97279.88;5055130;28;20052;-77
2023/02/18 11:00:00;;;;;;;1.55;0.80;;;;;;;13.97;57.50;97265.75;5043088;28;20049;-77
2023/02/18 11:02:31;;;;;;;0.95;0.70;;;;;;;13.95;57.59;97269.53;5054705;28;20067;-77
2023/02/18 11:05:06;;;;;;;2.10;0.77;;;;;;;13.90;57.76;97293.72;5055043;28;20045;-79
2023/02/18 11:07:36;;;;;;;0.95;0.80;;;;;;;13.84;57.62;97268.25;5054925;28;20143;-77
2023/02/18 11:10:14;;;;;;;1.17;1.00;;;;;;;13.76;57.63;97271.78;5054144;28;20072;-79
2023/02/18 11:12:47;;;;;;;0.60;0.60;;;;;;;13.69;58.04;97264.88;5054658;28;20106;-78
2023/02/18 11:15:21;;;;;;;3.35;1.08;;;;;;;13.64;58.24;97261.97;5054613;28;20049;-79
2023/02/18 11:17:50;;;;;;;0.57;0.52;;;;;;;13.60;58.55;97262.34;5054700;28;20057;-76
2023/02/18 11:20:26;;;;;;;1.13;0.73;;;;;;;13.50;58.80;97245.28;5055452;28;20083;-76
2023/02/18 11:22:58;;;;;;;11.18;6.47;;;;;;;13.48;59.25;97236.78;5055029;28;20059;-77
2023/02/18 11:25:31;;;;;;;1.90;1.75;;;;;;;13.48;59.29;97229.72;5055301;28;20064;-78
2023/02/18 11:28:03;;;;;;;1.05;0.90;;;;;;;13.47;59.02;97224.66;5054784;28;20063;-78
2023/02/18 11:30:33;;;;;;;0.70;0.70;;;;;;;13.47;59.19;97214.19;5055997;28;20052;-78
2023/02/18 11:33:06;;;;;;;1.50;0.73;;;;;;;13.51;58.99;97205.78;5056241;28;20087;-78
2023/02/18 11:35:35;;;;;;;1.10;0.75;;;;;;;13.61;59.09;97208.09;5055270;28;20495;-78
2023/02/18 11:38:23;;;;;;;0.63;0.55;;;;;;;13.75;58.80;97209.03;5055332;28;20076;-79
2023/02/18 11:40:56;;;;;;;1.45;0.95;;;;;;;13.92;58.16;97210.41;5056326;28;20080;-78
2023/02/18 11:43:30;;;;;;;0.65;0.65;;;;;;;14.00;57.99;97199.00;5056769;28;20075;-77
2023/02/18 11:46:09;;;;;;;0.60;0.60;;;;;;;14.00;57.61;97191.94;5056220;28;20056;-77
2023/02/18 11:48:37;;;;;;;0.70;0.70;;;;;;;13.99;57.75;97198.19;5054919;28;20116;-77